createdAt,value
2022-10-28T00:02:42.590Z,93.60
2022-10-28T00:07:45.961Z,94.28
2022-10-28T00:12:49.159Z,94.30
2022-10-28T00:17:53.058Z,94.31
2022-10-28T00:22:56.842Z,94.24
2022-10-28T00:28:02.496Z,94.35
2022-10-28T00:33:05.649Z,94.45
2022-10-28T00:38:08.836Z,94.49
2022-10-28T00:43:12.688Z,94.65
2022-10-28T00:48:15.853Z,94.88
2022-10-28T00:53:25.703Z,95.01
2022-10-28T00:58:29.815Z,95.14
2022-10-28T01:03:33.005Z,95.27
2022-10-28T01:08:36.222Z,95.37
2022-10-28T01:13:44.540Z,95.38
2022-10-28T01:18:59.698Z,95.47
2022-10-28T01:24:30.215Z,95.46
2022-10-28T01:30:07.121Z,95.48
2022-10-28T01:35:26.113Z,95.54
2022-10-28T01:40:40.796Z,95.52
2022-10-28T01:45:59.973Z,95.51
2022-10-28T01:51:29.740Z,95.50
2022-10-28T01:56:39.572Z,95.50
2022-10-28T02:01:42.978Z,95.64
2022-10-28T02:06:48.750Z,95.73
2022-10-28T02:12:17.242Z,95.77
2022-10-28T02:17:45.451Z,95.82
2022-10-28T02:22:55.829Z,95.90
2022-10-28T02:33:19.125Z,95.91
2022-10-28T02:38:39.835Z,95.91
2022-10-28T02:43:44.199Z,95.93
2022-10-28T02:48:55.534Z,95.96
2022-10-28T02:54:09.662Z,95.98
2022-10-28T02:59:13.571Z,96.00
2022-10-28T03:04:16.715Z,96.03
2022-10-28T03:09:19.928Z,96.05
2022-10-28T03:14:23.188Z,96.09
2022-10-28T03:19:26.380Z,96.05
2022-10-28T03:24:30.199Z,96.00
2022-10-28T03:29:36.261Z,96.09
2022-10-28T03:34:39.715Z,96.12
2022-10-28T03:39:43.046Z,96.20
2022-10-28T03:44:46.692Z,96.24
2022-10-28T03:49:50.613Z,96.24
2022-10-28T03:54:53.713Z,96.24
2022-10-28T03:59:56.805Z,96.22
2022-10-28T04:05:00.176Z,96.12
2022-10-28T04:10:03.673Z,96.01
2022-10-28T04:15:09.252Z,96.02
2022-10-28T04:20:16.960Z,95.95
2022-10-28T04:25:20.339Z,95.85
2022-10-28T04:30:23.698Z,95.89
2022-10-28T04:35:26.918Z,95.96
2022-10-28T04:40:33.047Z,96.02
2022-10-28T04:45:36.109Z,96.04
2022-10-28T04:50:39.389Z,96.06
2022-10-28T04:55:46.795Z,96.03
2022-10-28T05:00:50.062Z,95.97
2022-10-28T05:05:53.189Z,95.97
2022-10-28T05:10:58.825Z,95.86
2022-10-28T05:16:03.344Z,95.68
2022-10-28T05:21:11.644Z,95.75
2022-10-28T05:26:20.331Z,95.85
2022-10-28T05:31:32.918Z,95.92
2022-10-28T05:36:39.289Z,95.91
2022-10-28T05:41:42.817Z,95.95
2022-10-28T05:46:46.057Z,95.87
2022-10-28T05:51:49.764Z,95.85
2022-10-28T05:56:55.654Z,95.88
2022-10-28T06:01:58.944Z,95.96
2022-10-28T06:07:02.180Z,96.08
2022-10-28T06:12:05.471Z,96.24
2022-10-28T06:17:08.798Z,96.27
2022-10-28T06:22:12.020Z,96.30
2022-10-28T06:27:15.253Z,96.37
2022-10-28T06:32:20.239Z,96.38
2022-10-28T06:37:23.535Z,96.39
2022-10-28T06:42:26.693Z,96.36
2022-10-28T06:47:31.424Z,96.39
2022-10-28T06:52:35.241Z,96.40
2022-10-28T06:57:48.651Z,96.42
2022-10-28T07:03:07.871Z,96.46
2022-10-28T07:08:15.224Z,96.42
2022-10-28T07:13:19.876Z,96.47
2022-10-28T07:18:35.105Z,96.50
2022-10-28T07:23:51.894Z,96.57
2022-10-28T07:28:58.298Z,96.59
2022-10-28T07:34:01.685Z,96.58
2022-10-28T07:39:06.005Z,96.60
2022-10-28T07:44:10.801Z,96.45
2022-10-28T07:49:18.255Z,96.19
2022-10-28T07:54:22.895Z,96.29
2022-10-28T07:59:26.935Z,96.15
2022-10-28T08:04:33.654Z,95.88
2022-10-28T08:09:41.127Z,95.86
2022-10-28T08:14:47.464Z,95.87
2022-10-28T08:19:50.824Z,95.84
2022-10-28T08:24:58.112Z,95.81
2022-10-28T08:30:09.455Z,95.59
2022-10-28T08:35:28.848Z,95.63
2022-10-28T08:40:42.252Z,95.58
2022-10-28T08:46:03.540Z,95.17
2022-10-28T08:51:19.926Z,95.38
2022-10-28T08:56:40.637Z,95.22
2022-10-28T09:06:56.795Z,94.89
2022-10-28T09:12:34.996Z,94.57
2022-10-28T09:17:47.729Z,93.75
2022-10-28T09:22:59.247Z,92.80
2022-10-28T09:28:05.402Z,92.48
2022-10-28T09:33:34.111Z,91.61
2022-10-28T09:38:38.218Z,90.35
2022-10-28T09:43:58.524Z,89.09
2022-10-28T09:49:17.993Z,88.46
2022-10-28T09:54:31.629Z,88.88
2022-10-28T09:59:34.876Z,85.90
2022-10-28T10:04:38.020Z,81.96
2022-10-28T10:09:41.440Z,83.40
2022-10-28T10:14:54.580Z,84.04
2022-10-28T10:20:12.179Z,85.13
2022-10-28T10:25:18.732Z,80.67
2022-10-28T10:30:24.732Z,79.97
2022-10-28T10:35:33.621Z,78.81
2022-10-28T10:40:49.471Z,80.63
2022-10-28T10:46:02.238Z,78.79
2022-10-28T10:51:25.959Z,77.87
2022-10-28T10:56:31.582Z,77.79
2022-10-28T11:01:37.691Z,76.69
2022-10-28T11:06:42.676Z,75.25
2022-10-28T11:11:46.190Z,73.99
2022-10-28T11:16:52.182Z,75.53
2022-10-28T11:22:21.476Z,70.85
2022-10-28T11:27:48.685Z,71.71
2022-10-28T11:33:28.862Z,67.91
2022-10-28T11:39:12.514Z,72.56
2022-10-28T11:44:55.837Z,67.28
2022-10-28T11:50:25.606Z,68.19
2022-10-28T11:55:57.895Z,72.15
2022-10-28T12:01:31.292Z,66.12
2022-10-28T12:07:05.417Z,63.88
2022-10-28T12:12:33.704Z,63.31
2022-10-28T12:17:47.203Z,66.49
2022-10-28T12:22:56.764Z,65.84
2022-10-28T12:28:11.315Z,62.69
2022-10-28T12:33:46.453Z,62.26
2022-10-28T12:39:01.575Z,64.87
2022-10-28T12:44:17.012Z,64.04
2022-10-28T12:49:44.283Z,61.85
2022-10-28T12:54:55.951Z,69.46
2022-10-28T13:00:10.371Z,70.00
2022-10-28T13:05:43.759Z,68.78
2022-10-28T13:11:21.455Z,65.35
2022-10-28T13:16:40.919Z,62.17
2022-10-28T13:22:05.719Z,63.86
2022-10-28T13:27:17.065Z,57.54
2022-10-28T13:32:39.240Z,56.88
2022-10-28T13:37:48.713Z,57.30
2022-10-28T13:49:34.745Z,59.83
2022-10-28T13:55:01.064Z,60.85
2022-10-28T14:00:24.543Z,60.75
2022-10-28T14:05:37.106Z,59.76
2022-10-28T14:10:41.607Z,65.13
2022-10-28T14:15:49.361Z,63.57
2022-10-28T14:21:02.149Z,62.57
2022-10-28T14:26:08.206Z,56.26
2022-10-28T14:31:16.318Z,58.94
2022-10-28T14:36:20.095Z,61.43
2022-10-28T14:47:18.756Z,56.54
2022-10-28T14:52:24.398Z,57.78
2022-10-28T14:57:34.103Z,60.14
2022-10-28T15:02:38.581Z,60.78
2022-10-28T15:07:42.633Z,60.87
2022-10-28T15:12:52.321Z,62.25
2022-10-28T15:18:10.174Z,64.25
2022-10-28T15:23:13.433Z,66.14
2022-10-28T15:28:19.247Z,67.09
2022-10-28T15:33:42.025Z,67.84
2022-10-28T15:38:50.960Z,67.81
2022-10-28T15:44:37.475Z,68.33
2022-10-28T15:49:41.143Z,69.27
2022-10-28T15:55:35.613Z,70.78
2022-10-28T16:00:54.545Z,70.84
2022-10-28T16:06:21.798Z,71.13
2022-10-28T16:12:03.471Z,71.75
2022-10-28T16:17:21.967Z,74.50
2022-10-28T16:22:43.914Z,73.91
2022-10-28T16:27:51.071Z,73.29
2022-10-28T16:32:57.186Z,73.46
2022-10-28T16:38:01.075Z,73.66
2022-10-28T16:43:04.281Z,74.19
2022-10-28T16:48:13.268Z,74.42
2022-10-28T16:53:20.007Z,74.61
2022-10-28T16:58:27.035Z,75.01
2022-10-28T17:03:31.539Z,75.02
2022-10-28T17:09:02.007Z,75.30
2022-10-28T17:14:02.984Z,78.04
2022-10-28T17:19:06.183Z,79.58
2022-10-28T17:24:09.995Z,79.53
2022-10-28T17:29:13.409Z,79.65
2022-10-28T17:34:20.059Z,79.49
2022-10-28T17:39:26.455Z,78.39
2022-10-28T17:44:34.742Z,79.03
2022-10-28T17:49:42.617Z,81.45
2022-10-28T17:54:46.419Z,82.04
2022-10-28T17:59:49.639Z,79.58
2022-10-28T18:04:52.828Z,79.08
2022-10-28T18:09:56.090Z,79.20
2022-10-28T18:15:03.105Z,81.51
2022-10-28T18:20:07.188Z,82.55
2022-10-28T18:25:13.133Z,83.29
2022-10-28T18:30:17.095Z,83.47
2022-10-28T18:35:21.826Z,83.67
2022-10-28T18:40:28.020Z,84.51
2022-10-28T18:45:34.003Z,84.87
2022-10-28T18:50:49.221Z,84.61
2022-10-28T18:56:23.261Z,85.17
2022-10-28T19:01:30.525Z,85.10
2022-10-28T19:06:42.683Z,85.10
2022-10-28T19:11:49.915Z,84.74
2022-10-28T19:16:53.235Z,85.40
2022-10-28T19:22:00.689Z,85.41
2022-10-28T19:27:20.577Z,85.49
2022-10-28T19:32:44.176Z,85.86
2022-10-28T19:38:20.523Z,86.29
2022-10-28T19:43:45.152Z,86.32
2022-10-28T19:49:04.854Z,86.61
2022-10-28T19:54:24.023Z,86.80
2022-10-28T20:00:06.841Z,86.53
2022-10-28T20:05:15.341Z,86.94
2022-10-28T20:10:32.051Z,87.23
2022-10-28T20:15:38.557Z,87.52
2022-10-28T20:20:48.111Z,87.85
2022-10-28T20:25:52.663Z,88.03
2022-10-28T20:31:07.071Z,88.05
2022-10-28T20:36:39.242Z,88.08
2022-10-28T20:41:51.830Z,88.02
2022-10-28T20:46:59.056Z,88.08
2022-10-28T20:52:05.140Z,88.08
2022-10-28T20:57:08.553Z,88.03
2022-10-28T21:02:12.467Z,87.99
2022-10-28T21:07:16.020Z,87.90
2022-10-28T21:12:19.303Z,87.87
2022-10-28T21:17:24.068Z,87.93
2022-10-28T21:22:29.628Z,88.34
2022-10-28T21:27:40.153Z,88.78
2022-10-28T21:32:44.236Z,88.93
2022-10-28T21:37:50.584Z,89.03
2022-10-28T21:42:55.540Z,88.97
2022-10-28T21:47:59.212Z,88.91
2022-10-28T21:53:04.355Z,88.82
2022-10-28T21:58:11.507Z,88.73
2022-10-28T22:03:14.814Z,88.71
2022-10-28T22:08:18.132Z,88.87
2022-10-28T22:13:21.472Z,89.07
2022-10-28T22:18:25.415Z,89.33
2022-10-28T22:23:28.890Z,89.47
2022-10-28T22:28:32.590Z,89.73
2022-10-28T22:33:36.142Z,89.80
2022-10-28T22:38:40.321Z,89.89
2022-10-28T22:43:46.466Z,90.05
2022-10-28T22:48:53.218Z,90.22
2022-10-28T22:53:56.587Z,90.20
2022-10-28T22:59:01.647Z,90.19
2022-10-28T23:04:10.176Z,90.30
2022-10-28T23:09:13.590Z,90.45
2022-10-28T23:14:16.951Z,90.50
2022-10-28T23:19:20.287Z,90.45
2022-10-28T23:24:23.539Z,90.34
2022-10-28T23:29:26.847Z,90.27
2022-10-28T23:34:30.949Z,90.18
2022-10-28T23:39:34.297Z,90.20
2022-10-28T23:44:37.734Z,90.26
2022-10-28T23:49:43.851Z,90.31
2022-10-28T23:54:47.218Z,90.43
2022-10-28T23:59:50.509Z,90.45
